Time;durP1;ratioP1;P1;durP2;ratioP2;P2;SDS_P1;SDS_P2;PMS_P1;PMS_P2;Temp;Humidity;BMP_temperature;BMP_pressure;BME280_temperature;BME280_humidity;BME280_pressure;Samples;Min_cycle;Max_cycle;Signal;HPM_P1;HPM_P2
2022/02/08 00:01:29;;;;;;;6.40;2.17;;;1.60;86.80;;;;;;5087438;28;20597;-82
2022/02/08 00:03:57;;;;;;;7.60;2.33;;;1.50;86.70;;;;;;5104038;28;20231;-82
2022/02/08 00:06:37;;;;;;;5.53;2.27;;;1.50;85.70;;;;;;5106427;28;20277;-81
2022/02/08 00:09:05;;;;;;;8.10;2.50;;;1.40;86.70;;;;;;5091544;28;20239;-81
2022/02/08 00:11:58;;;;;;;7.47;2.20;;;1.30;86.70;;;;;;5102040;28;20200;-81
2022/02/08 00:14:37;;;;;;;13.57;2.73;;;1.30;86.70;;;;;;5101582;28;20247;-83
2022/02/08 00:17:08;;;;;;;7.07;2.40;;;1.30;86.60;;;;;;5104083;28;20204;-83
2022/02/08 00:19:35;;;;;;;7.50;2.40;;;1.20;87.60;;;;;;5099167;28;20251;-84
2022/02/08 00:22:02;;;;;;;5.73;2.53;;;1.20;88.70;;;;;;5098646;28;20204;-81
2022/02/08 00:24:29;;;;;;;6.53;2.03;;;1.20;88.10;;;;;;5110791;28;20255;-83
2022/02/08 00:26:57;;;;;;;8.30;2.30;;;1.20;87.90;;;;;;5098285;28;20246;-81
2022/02/08 00:29:27;;;;;;;7.63;2.17;;;1.10;88.50;;;;;;5101133;28;20231;-81
2022/02/08 00:31:55;;;;;;;6.23;2.13;;;1.10;88.40;;;;;;5106183;28;20200;-81
2022/02/08 00:34:23;;;;;;;9.60;2.50;;;1.10;88.60;;;;;;5101339;28;20654;-81
2022/02/08 00:36:49;;;;;;;7.63;2.37;;;1.10;88.40;;;;;;5109983;28;20201;-82
2022/02/08 00:39:16;;;;;;;5.07;2.10;;;1.00;88.70;;;;;;5102460;28;20248;-81
2022/02/08 00:41:43;;;;;;;6.87;1.90;;;1.00;88.90;;;;;;5096514;28;20201;-86
2022/02/08 00:44:30;;;;;;;6.43;2.20;;;1.10;89.00;;;;;;5101358;28;20304;-81
2022/02/08 00:47:12;;;;;;;6.73;2.13;;;1.20;87.70;;;;;;5103020;28;20265;-82
2022/02/08 00:52:20;;;;;;;4.97;2.00;;;1.20;86.60;;;;;;5107742;28;20234;-83
2022/02/08 00:54:49;;;;;;;5.67;1.90;;;1.30;86.60;;;;;;5102218;28;20247;-82
2022/02/08 00:57:46;;;;;;;7.17;2.03;;;1.20;87.60;;;;;;5111701;28;20287;-81
2022/02/08 01:00:20;;;;;;;4.47;2.10;;;1.10;87.80;;;;;;5090845;28;20293;-81
2022/02/08 01:02:53;;;;;;;7.17;2.03;;;1.10;87.60;;;;;;5111332;28;20207;-81
2022/02/08 01:05:20;;;;;;;5.33;2.30;;;1.20;86.60;;;;;;5095301;28;20626;-83
2022/02/08 01:07:47;;;;;;;6.60;2.13;;;1.10;88.10;;;;;;5105179;28;20560;-82
2022/02/08 01:10:17;;;;;;;5.53;1.90;;;1.10;87.80;;;;;;5094196;28;20240;-83
2022/02/08 01:12:47;;;;;;;8.17;2.43;;;1.10;87.70;;;;;;5097816;28;20200;-81
2022/02/08 01:15:19;;;;;;;4.03;2.17;;;1.10;86.60;;;;;;5092797;28;20231;-83
2022/02/08 01:17:55;;;;;;;6.07;2.00;;;1.10;87.60;;;;;;5095419;28;20274;-81
2022/02/08 01:20:31;;;;;;;4.73;2.03;;;1.10;87.50;;;;;;5092836;28;20227;-81
2022/02/08 01:23:05;;;;;;;5.67;1.90;;;1.00;88.20;;;;;;5109040;28;20184;-84
2022/02/08 01:25:39;;;;;;;8.47;2.10;;;0.90;89.20;;;;;;5110116;28;20215;-81
2022/02/08 01:28:15;;;;;;;8.90;2.47;;;0.90;89.40;;;;;;5097773;28;20177;-81
2022/02/08 01:30:55;;;;;;;5.67;2.00;;;0.90;89.00;;;;;;5110670;28;20223;-83
2022/02/08 01:39:25;;;;;;;7.47;2.10;;;0.80;90.00;;;;;;5092816;28;20247;-82
2022/02/08 01:42:22;;;;;;;4.27;2.00;;;0.90;90.00;;;;;;5090225;28;20702;-81
2022/02/08 01:45:03;;;;;;;5.77;2.10;;;0.80;90.40;;;;;;5094133;28;20236;-81
2022/02/08 01:47:43;;;;;;;5.07;1.90;;;0.70;90.70;;;;;;5103071;28;20249;-81
2022/02/08 01:50:15;;;;;;;8.00;1.70;;;0.70;90.90;;;;;;5104041;28;20629;-81
2022/02/08 01:52:43;;;;;;;7.40;2.07;;;0.70;90.50;;;;;;5108384;28;20210;-82
2022/02/08 01:55:12;;;;;;;7.90;1.93;;;0.70;90.80;;;;;;5107509;28;20227;-82
2022/02/08 01:57:40;;;;;;;7.03;2.17;;;0.80;91.00;;;;;;5109002;28;20200;-83
2022/02/08 02:00:11;;;;;;;11.43;2.33;;;0.80;90.70;;;;;;5107511;28;20595;-83
2022/02/08 02:02:39;;;;;;;5.43;2.17;;;0.90;90.40;;;;;;5078148;28;20254;-81
2022/02/08 02:05:07;;;;;;;5.80;2.03;;;0.80;90.50;;;;;;5099865;28;20228;-83
2022/02/08 02:07:35;;;;;;;5.87;2.10;;;0.80;90.90;;;;;;5096344;28;20227;-83
2022/02/08 02:10:02;;;;;;;6.57;2.00;;;0.90;90.90;;;;;;5102784;28;20236;-81
2022/02/08 02:12:28;;;;;;;5.13;1.63;;;0.90;90.60;;;;;;5085741;28;20232;-82
2022/02/08 02:15:05;;;;;;;5.40;1.80;;;1.00;90.20;;;;;;5099073;28;20311;-81
2022/02/08 02:17:34;;;;;;;5.83;1.80;;;1.10;89.80;;;;;;5096364;28;20196;-82
2022/02/08 02:20:02;;;;;;;7.30;1.70;;;1.20;87.70;;;;;;5104518;28;20236;-81
2022/02/08 02:22:30;;;;;;;6.13;2.10;;;1.30;87.80;;;;;;5106911;28;20288;-81
2022/02/08 02:24:59;;;;;;;6.60;2.10;;;1.40;88.10;;;;;;5094039;28;20255;-82
2022/02/08 02:27:26;;;;;;;5.67;1.90;;;1.40;87.00;;;;;;5100356;28;20298;-82
2022/02/08 02:29:52;;;;;;;5.27;1.70;;;1.60;86.80;;;;;;5100131;28;20225;-84
2022/02/08 02:32:19;;;;;;;6.27;1.80;;;1.60;85.60;;;;;;5098108;28;20208;-82
2022/02/08 02:34:47;;;;;;;5.07;2.20;;;1.60;85.70;;;;;;5098191;28;20281;-81
2022/02/08 02:37:14;;;;;;;7.13;1.60;;;1.70;85.50;;;;;;5092689;28;20264;-88
2022/02/08 02:39:41;;;;;;;7.23;1.90;;;1.70;85.30;;;;;;5103920;28;20255;-82
2022/02/08 02:42:12;;;;;;;5.60;1.97;;;1.70;84.40;;;;;;5106234;28;20220;-82
2022/02/08 02:44:40;;;;;;;5.83;1.90;;;1.60;85.20;;;;;;5103129;28;20259;-82
2022/02/08 02:47:07;;;;;;;4.70;1.60;;;1.60;85.80;;;;;;5097917;28;20227;-82
2022/02/08 02:49:34;;;;;;;3.93;1.60;;;1.70;85.10;;;;;;5093076;28;20267;-83
2022/02/08 02:52:06;;;;;;;4.73;1.80;;;1.70;85.10;;;;;;5098546;28;20583;-81
2022/02/08 02:54:35;;;;;;;6.37;2.07;;;1.70;84.20;;;;;;5093089;28;20231;-81
2022/02/08 02:57:03;;;;;;;5.83;1.67;;;1.80;83.20;;;;;;5096454;28;20260;-88
2022/02/08 02:59:33;;;;;;;9.80;2.17;;;1.80;83.20;;;;;;5102978;28;20223;-82
2022/02/08 03:02:27;;;;;;;4.07;1.70;;;1.90;82.50;;;;;;5098393;28;20646;-81
2022/02/08 03:05:02;;;;;;;3.13;1.50;;;1.90;82.40;;;;;;5087488;28;20225;-82
2022/02/08 03:18:37;;;;;;;5.70;1.80;;;2.10;80.00;;;;;;5093887;28;20278;-83
2022/02/08 03:21:04;;;;;;;3.90;1.80;;;2.10;79.40;;;;;;5105569;28;20196;-82
2022/02/08 03:23:34;;;;;;;2.23;1.50;;;2.10;80.10;;;;;;5106100;28;20224;-82
2022/02/08 03:26:01;;;;;;;7.13;1.60;;;2.10;80.40;;;;;;5100815;28;20201;-83
2022/02/08 03:28:28;;;;;;;3.67;1.50;;;2.10;79.60;;;;;;5099258;28;20289;-81
2022/02/08 03:30:57;;;;;;;4.57;1.73;;;2.10;80.10;;;;;;5101118;28;20251;-83
2022/02/08 03:33:27;;;;;;;5.90;1.60;;;2.10;80.10;;;;;;5098267;28;20254;-82
2022/02/08 03:35:55;;;;;;;4.30;1.73;;;2.20;79.40;;;;;;5102588;28;20236;-82
2022/02/08 03:38:29;;;;;;;3.90;1.47;;;2.20;79.40;;;;;;5093589;28;20225;-84
2022/02/08 03:40:56;;;;;;;5.07;1.77;;;2.20;79.40;;;;;;5098468;28;20200;-82
2022/02/08 03:43:31;;;;;;;3.03;1.63;;;2.20;79.50;;;;;;5091813;28;20228;-81
2022/02/08 03:46:04;;;;;;;4.13;1.40;;;2.20;79.40;;;;;;5101271;28;20275;-83
2022/02/08 03:48:33;;;;;;;4.13;1.50;;;2.20;79.60;;;;;;5104541;28;20240;-82
2022/02/08 03:51:09;;;;;;;4.23;1.40;;;2.20;80.30;;;;;;5099832;28;20224;-82
2022/02/08 03:53:37;;;;;;;4.23;1.50;;;2.10;80.40;;;;;;5096107;28;20259;-82
2022/02/08 03:56:06;;;;;;;3.30;1.57;;;2.20;81.30;;;;;;5100000;28;20208;-81
2022/02/08 03:58:33;;;;;;;2.90;1.30;;;2.20;80.20;;;;;;5091641;28;20255;-84
2022/02/08 04:04:24;;;;;;;9.07;2.00;;;2.20;80.30;;;;;;5100616;27;20612;-83
2022/02/08 04:06:55;;;;;;;5.40;1.70;;;2.30;80.70;;;;;;5051321;28;21064;-82
2022/02/08 04:09:22;;;;;;;2.80;1.40;;;2.30;80.80;;;;;;5067603;28;20678;-89
2022/02/08 04:11:56;;;;;;;3.73;1.60;;;2.30;80.90;;;;;;5078847;28;20630;-83
2022/02/08 04:14:32;;;;;;;3.77;1.63;;;2.30;80.80;;;;;;5075514;28;20714;-87
2022/02/08 04:17:07;;;;;;;4.87;1.47;;;2.30;81.30;;;;;;5076390;28;20228;-82
2022/02/08 04:19:45;;;;;;;5.43;1.60;;;2.40;80.90;;;;;;5075379;28;20259;-85
2022/02/08 04:33:14;;;;;;;2.83;1.47;;;2.20;81.00;;;;;;5068830;28;20224;-82
2022/02/08 04:36:01;;;;;;;5.97;1.50;;;2.20;80.90;;;;;;5076065;28;20205;-83
2022/02/08 04:38:40;;;;;;;5.83;1.57;;;2.20;81.20;;;;;;5074467;28;20236;-83
2022/02/08 04:41:11;;;;;;;4.03;1.77;;;2.20;80.80;;;;;;5071076;28;20208;-82
2022/02/08 04:43:46;;;;;;;3.73;1.50;;;2.30;79.60;;;;;;5075921;28;20229;-82
2022/02/08 04:46:25;;;;;;;3.77;1.30;;;2.40;79.60;;;;;;5075990;28;20239;-83
2022/02/08 04:48:54;;;;;;;4.63;1.50;;;2.40;78.90;;;;;;5063679;28;20947;-82
2022/02/08 04:51:29;;;;;;;6.00;1.50;;;2.40;79.70;;;;;;5051102;28;20198;-83
2022/02/08 04:54:05;;;;;;;4.40;1.47;;;2.40;78.40;;;;;;5054312;28;20229;-82
2022/02/08 04:56:42;;;;;;;2.27;1.23;;;2.40;78.30;;;;;;5056136;28;20324;-83
2022/02/08 04:59:31;;;;;;;6.83;1.80;;;2.40;77.90;;;;;;5054358;28;20283;-82
2022/02/08 05:02:15;;;;;;;5.67;1.50;;;2.30;78.50;;;;;;5047494;28;20202;-83
2022/02/08 05:27:08;;;;;;;3.17;1.50;;;3.10;69.10;;;;;;5058660;28;20435;-83
2022/02/08 05:43:46;;;;;;;5.07;1.40;;;2.90;67.50;;;;;;5056584;28;20262;-83
2022/02/08 05:46:47;;;;;;;3.10;1.43;;;2.80;67.40;;;;;;5052256;28;20222;-83
2022/02/08 05:49:23;;;;;;;4.93;1.40;;;2.80;67.40;;;;;;5057786;28;20229;-84
2022/02/08 05:52:10;;;;;;;3.03;1.83;;;2.80;67.40;;;;;;5058903;28;20209;-82
2022/02/08 05:54:38;;;;;;;4.73;1.43;;;3.00;67.60;;;;;;5041351;28;20266;-82
2022/02/08 05:57:07;;;;;;;4.50;1.60;;;3.00;65.50;;;;;;5052060;28;20743;-82
2022/02/08 05:59:34;;;;;;;5.23;1.40;;;3.10;64.60;;;;;;5057375;28;20247;-82
2022/02/08 06:02:01;;;;;;;3.67;1.33;;;3.20;66.40;;;;;;5058456;28;20253;-84
2022/02/08 06:04:28;;;;;;;9.00;1.73;;;3.00;67.60;;;;;;5053488;28;20301;-82
2022/02/08 06:06:56;;;;;;;4.70;1.57;;;3.00;65.40;;;;;;5059724;28;20214;-82
2022/02/08 06:09:23;;;;;;;5.73;1.70;;;3.00;67.60;;;;;;5045494;28;20218;-82
2022/02/08 06:11:50;;;;;;;4.10;1.67;;;3.10;64.70;;;;;;5048991;28;20206;-84
2022/02/08 06:14:24;;;;;;;6.40;1.23;;;3.10;64.70;;;;;;5054348;28;20256;-82
2022/02/08 06:16:51;;;;;;;5.83;1.60;;;3.10;66.20;;;;;;5059917;28;20255;-84
2022/02/08 06:19:18;;;;;;;6.83;1.37;;;3.10;67.80;;;;;;5060009;28;20313;-82
2022/02/08 06:21:45;;;;;;;7.53;1.60;;;3.20;66.60;;;;;;5060139;28;20202;-82
2022/02/08 06:24:12;;;;;;;2.40;1.20;;;3.10;64.90;;;;;;5053902;28;20252;-84
2022/02/08 06:26:39;;;;;;;3.23;1.43;;;3.10;65.60;;;;;;5055425;28;20286;-83
2022/02/08 06:29:11;;;;;;;6.33;1.40;;;3.20;64.20;;;;;;5055025;28;20222;-83
2022/02/08 06:31:40;;;;;;;6.90;1.83;;;3.30;63.20;;;;;;5060596;28;20693;-83
2022/02/08 06:34:07;;;;;;;6.17;1.80;;;3.30;63.60;;;;;;5059215;28;20313;-84
2022/02/08 06:36:34;;;;;;;3.90;1.70;;;3.30;64.00;;;;;;5059280;28;20202;-83
2022/02/08 06:39:01;;;;;;;5.17;1.47;;;3.40;60.60;;;;;;5049334;28;20676;-84
2022/02/08 06:41:28;;;;;;;5.50;1.40;;;3.40;62.70;;;;;;5055564;28;20247;-83
2022/02/08 06:43:55;;;;;;;4.20;1.50;;;3.40;60.20;;;;;;5056506;28;20790;-83
2022/02/08 06:46:22;;;;;;;4.87;1.47;;;3.30;61.50;;;;;;5054346;28;20222;-83
2022/02/08 06:48:50;;;;;;;3.00;1.47;;;3.40;63.70;;;;;;5057522;28;20744;-82
2022/02/08 06:51:17;;;;;;;7.23;1.87;;;3.30;63.50;;;;;;5058126;28;20281;-86
2022/02/08 06:53:45;;;;;;;3.03;1.70;;;3.30;63.70;;;;;;5055387;28;20328;-88
2022/02/08 06:56:12;;;;;;;5.30;1.50;;;3.30;62.70;;;;;;5054450;28;20701;-86
2022/02/08 06:58:56;;;;;;;5.53;1.70;;;3.20;63.10;;;;;;5050354;28;20237;-83
2022/02/08 07:01:27;;;;;;;5.90;1.60;;;3.30;62.50;;;;;;5047079;28;20196;-85
2022/02/08 07:03:55;;;;;;;6.60;1.73;;;3.30;62.10;;;;;;5051902;28;20271;-85
2022/02/08 07:06:22;;;;;;;6.07;1.70;;;3.30;62.30;;;;;;5049667;28;20202;-84
2022/02/08 07:08:49;;;;;;;5.50;1.70;;;3.30;63.10;;;;;;5050032;28;20312;-85
2022/02/08 07:11:23;;;;;;;4.77;1.70;;;3.30;61.60;;;;;;5049970;28;20194;-83
2022/02/08 07:13:53;;;;;;;5.37;1.97;;;3.30;59.20;;;;;;5053239;28;20593;-85
2022/02/08 07:16:21;;;;;;;3.90;1.60;;;3.40;59.20;;;;;;5047971;28;20650;-86
2022/02/08 07:18:48;;;;;;;5.33;1.50;;;3.40;59.70;;;;;;5051774;28;20918;-90
2022/02/08 07:21:16;;;;;;;4.50;1.70;;;3.40;59.20;;;;;;5048927;28;20265;-85
2022/02/08 07:23:44;;;;;;;4.53;1.50;;;3.50;59.50;;;;;;5053022;28;20226;-84
2022/02/08 07:26:25;;;;;;;4.30;1.40;;;3.50;57.60;;;;;;5058699;28;20955;-83
2022/02/08 07:29:00;;;;;;;5.60;1.53;;;3.70;57.00;;;;;;5051096;28;20308;-85
2022/02/08 07:31:38;;;;;;;3.43;1.80;;;3.80;55.20;;;;;;5042447;28;20196;-89
2022/02/08 07:34:15;;;;;;;3.93;1.70;;;3.80;55.20;;;;;;5043752;28;20230;-84
2022/02/08 07:36:49;;;;;;;3.23;1.30;;;3.80;54.60;;;;;;5043299;28;20186;-83
2022/02/08 07:39:24;;;;;;;6.47;1.40;;;4.00;53.30;;;;;;5044800;28;20225;-83
2022/02/08 07:41:52;;;;;;;6.83;1.60;;;4.00;55.60;;;;;;5044566;28;20205;-84
2022/02/08 07:44:19;;;;;;;6.03;1.57;;;3.90;56.50;;;;;;5047560;28;20644;-84
2022/02/08 07:46:46;;;;;;;6.17;1.57;;;3.80;58.30;;;;;;5059217;28;20208;-84
2022/02/08 07:49:13;;;;;;;5.50;1.67;;;3.80;56.10;;;;;;5058385;28;20312;-84
2022/02/08 07:51:42;;;;;;;4.13;1.47;;;3.80;55.30;;;;;;5050645;28;20221;-85
2022/02/08 07:54:11;;;;;;;3.43;1.20;;;4.00;55.10;;;;;;5055343;28;20248;-83
2022/02/08 07:56:38;;;;;;;4.20;1.30;;;4.30;53.60;;;;;;5049981;28;20195;-83
2022/02/08 07:59:05;;;;;;;5.00;1.40;;;4.20;52.90;;;;;;5068075;28;20284;-83
2022/02/08 08:01:32;;;;;;;5.40;1.53;;;4.30;52.30;;;;;;5058822;28;20195;-82
2022/02/08 08:04:01;;;;;;;4.37;1.60;;;4.20;53.30;;;;;;5057348;28;20249;-83
2022/02/08 08:06:28;;;;;;;7.27;1.47;;;4.20;53.20;;;;;;5060291;28;20225;-83
2022/02/08 08:08:56;;;;;;;5.37;1.57;;;4.10;54.80;;;;;;5059214;28;20246;-84
2022/02/08 08:11:24;;;;;;;6.23;1.60;;;4.20;54.50;;;;;;5068824;28;20202;-81
2022/02/08 08:14:00;;;;;;;3.00;1.60;;;4.30;55.10;;;;;;5061182;28;20242;-83
2022/02/08 08:16:39;;;;;;;3.23;1.53;;;4.40;52.00;;;;;;5059058;28;20189;-81
2022/02/08 08:19:20;;;;;;;3.50;1.50;;;4.50;50.70;;;;;;5061778;28;20582;-81
2022/02/08 08:21:53;;;;;;;5.73;1.50;;;4.60;50.00;;;;;;5047449;28;20210;-80
2022/02/08 08:24:20;;;;;;;4.30;1.80;;;4.60;49.50;;;;;;5044010;28;20594;-80
2022/02/08 08:26:48;;;;;;;4.27;1.60;;;4.80;47.20;;;;;;5051380;28;20204;-84
2022/02/08 08:29:15;;;;;;;2.33;1.40;;;4.80;44.60;;;;;;5060018;28;20225;-80
2022/02/08 08:31:45;;;;;;;4.77;1.30;;;4.70;44.10;;;;;;5056305;28;20185;-80
2022/02/08 08:34:13;;;;;;;6.63;1.50;;;4.80;44.10;;;;;;5057537;28;20260;-83
2022/02/08 08:36:42;;;;;;;4.50;1.50;;;4.80;42.80;;;;;;5055627;28;20194;-83
2022/02/08 08:39:11;;;;;;;4.93;1.33;;;4.70;41.80;;;;;;5053149;28;20265;-83
2022/02/08 08:41:46;;;;;;;3.23;1.43;;;4.80;42.60;;;;;;5055343;28;20911;-82
2022/02/08 08:44:39;;;;;;;3.27;1.10;;;5.00;41.80;;;;;;5053486;28;20233;-80
2022/02/08 08:50:08;;;;;;;3.30;1.30;;;5.00;40.90;;;;;;5052647;28;20236;-81
2022/02/08 08:52:40;;;;;;;4.73;1.23;;;5.00;39.50;;;;;;5056884;28;20602;-84
2022/02/08 08:55:08;;;;;;;7.50;1.67;;;5.20;36.90;;;;;;5055824;28;20226;-82
2022/02/08 08:57:35;;;;;;;5.00;1.57;;;5.30;37.30;;;;;;5062735;28;20186;-85
2022/02/08 09:00:05;;;;;;;5.13;1.30;;;5.40;36.20;;;;;;5063380;28;20228;-81
2022/02/08 09:02:58;;;;;;;2.33;1.33;;;5.50;35.10;;;;;;5064773;28;20224;-82
2022/02/08 09:05:43;;;;;;;2.43;1.40;;;5.60;34.70;;;;;;5065886;28;20351;-82
2022/02/08 09:08:11;;;;;;;7.30;1.83;;;5.90;34.30;;;;;;5057526;28;20222;-82
2022/02/08 09:10:48;;;;;;;3.23;2.00;;;6.00;33.90;;;;;;5066712;28;20206;-84
2022/02/08 09:13:45;;;;;;;2.60;1.53;;;6.20;33.40;;;;;;5066736;28;20723;-85
2022/02/08 09:16:31;;;;;;;3.60;1.10;;;6.20;32.70;;;;;;5067860;28;20197;-84
2022/02/08 09:30:16;;;;;;;2.97;1.30;;;6.70;29.50;;;;;;5038626;28;20236;-85
2022/02/08 09:32:48;;;;;;;3.33;1.50;;;6.80;29.40;;;;;;5056063;28;20185;-87
2022/02/08 09:35:23;;;;;;;3.00;1.07;;;6.90;28.90;;;;;;5050615;28;20676;-84
2022/02/08 09:37:52;;;;;;;6.70;1.40;;;7.00;26.90;;;;;;5052150;28;20201;-86
2022/02/08 09:40:21;;;;;;;2.03;1.10;;;6.90;26.50;;;;;;5049103;28;20226;-88
2022/02/08 09:42:56;;;;;;;1.60;1.00;;;7.10;27.20;;;;;;5056950;28;20234;-81
2022/02/08 09:45:24;;;;;;;2.87;1.10;;;7.20;24.30;;;;;;5052208;28;20256;-87
2022/02/08 09:48:08;;;;;;;4.00;1.20;;;7.30;26.60;;;;;;5059111;28;20233;-85
2022/02/08 09:50:37;;;;;;;3.80;0.98;;;7.50;25.10;;;;;;5061159;28;20228;-86
2022/02/08 09:53:18;;;;;;;3.67;1.30;;;8.00;23.60;;;;;;5057457;28;20545;-86
2022/02/08 09:55:46;;;;;;;1.67;0.98;;;8.30;23.80;;;;;;5065545;28;20232;-87
2022/02/08 09:58:13;;;;;;;1.63;1.20;;;8.20;22.00;;;;;;5061038;28;20202;-84
2022/02/08 10:00:41;;;;;;;1.38;0.95;;;8.10;21.20;;;;;;5062504;28;20202;-87
2022/02/08 10:03:11;;;;;;;1.98;1.10;;;7.70;23.40;;;;;;5097866;28;20194;-87
2022/02/08 10:05:43;;;;;;;3.22;1.20;;;7.70;21.50;;;;;;5061249;28;20216;-85
2022/02/08 10:08:10;;;;;;;2.95;1.35;;;7.90;22.20;;;;;;5060579;28;20234;-86
2022/02/08 10:10:37;;;;;;;2.03;1.20;;;8.30;20.60;;;;;;5059068;28;20200;-92
2022/02/08 10:21:48;;;;;;;1.90;1.20;;;9.30;18.00;;;;;;5012351;28;20188;-87
2022/02/08 10:24:17;;;;;;;2.60;1.08;;;9.40;18.20;;;;;;5021706;28;20243;-86
2022/02/08 10:27:02;;;;;;;2.35;1.00;;;9.30;17.60;;;;;;5052497;28;20193;-86
2022/02/08 10:37:36;;;;;;;1.42;1.10;;;9.10;18.10;;;;;;5072502;28;20202;-85
2022/02/08 10:38:17;;;;;;;1.42;1.23;;;9.20;17.80;;;;;;5054061;28;20209;-85
2022/02/08 10:40:50;;;;;;;2.95;1.05;;;9.10;17.60;;;;;;5057458;28;20198;-84
2022/02/08 10:43:19;;;;;;;4.47;1.30;;;8.80;18.30;;;;;;5060276;28;20225;-83
2022/02/08 10:45:46;;;;;;;2.88;1.00;;;8.70;19.80;;;;;;5061386;28;20266;-84
2022/02/08 10:48:25;;;;;;;1.30;1.10;;;8.50;19.10;;;;;;5067768;28;20744;-83
2022/02/08 10:50:56;;;;;;;4.22;1.00;;;8.60;19.00;;;;;;5067837;28;20182;-83
2022/02/08 10:53:28;;;;;;;1.45;0.95;;;8.50;19.60;;;;;;5065577;28;20226;-87
2022/02/08 10:56:11;;;;;;;1.73;1.13;;;8.50;21.70;;;;;;5059405;28;20190;-85
2022/02/08 10:58:46;;;;;;;3.22;1.00;;;8.70;20.60;;;;;;5063588;28;20221;-85
2022/02/08 11:01:19;;;;;;;2.97;1.00;;;8.50;21.20;;;;;;5062542;28;20197;-85
2022/02/08 11:03:51;;;;;;;3.30;1.00;;;8.40;20.30;;;;;;5070311;28;20229;-85
2022/02/08 11:06:27;;;;;;;3.35;1.20;;;8.20;21.70;;;;;;5063126;28;20240;-84
2022/02/08 11:14:34;;;;;;;1.10;1.00;;;8.50;20.40;;;;;;5053555;28;20788;-87
2022/02/08 11:17:38;;;;;;;1.48;0.80;;;8.50;20.50;;;;;;5052669;28;20201;-84
2022/02/08 11:20:21;;;;;;;1.95;1.10;;;8.50;19.40;;;;;;5058932;28;20226;-84
2022/02/08 11:23:12;;;;;;;1.20;1.02;;;8.60;19.10;;;;;;5064353;28;20205;-85
2022/02/08 11:25:42;;;;;;;0.90;0.82;;;8.70;18.60;;;;;;5059581;28;20292;-85
2022/02/08 11:28:37;;;;;;;1.67;1.13;;;8.40;19.50;;;;;;5036879;28;20233;-84
2022/02/08 11:31:16;;;;;;;1.70;1.08;;;8.40;19.10;;;;;;5062185;28;20198;-86
2022/02/08 11:34:01;;;;;;;0.70;0.70;;;8.60;20.20;;;;;;5057513;28;20221;-87
2022/02/08 11:39:56;;;;;;;2.40;1.13;;;8.90;19.40;;;;;;5057856;28;20228;-83
2022/02/08 11:43:05;;;;;;;2.58;0.90;;;8.80;18.00;;;;;;5054857;28;20208;-83
2022/02/08 11:45:43;;;;;;;3.25;0.90;;;8.60;19.20;;;;;;5062345;28;20222;-85
2022/02/08 11:53:47;;;;;;;1.10;0.90;;;8.50;20.40;;;;;;5064805;28;20229;-84
2022/02/08 12:05:26;;;;;;;1.38;1.10;;;9.20;20.00;;;;;;5085584;28;20239;-84
2022/02/08 12:07:57;;;;;;;4.18;0.95;;;9.20;19.90;;;;;;5087635;28;20211;-85
2022/02/08 12:10:35;;;;;;;2.72;1.00;;;9.40;20.10;;;;;;5088802;28;20284;-87
2022/02/08 12:33:03;;;;;;;1.15;0.80;;;9.40;22.00;;;;;;5062468;28;20209;-85
2022/02/08 13:02:24;;;;;;;1.38;0.80;;;9.70;18.50;;;;;;5446049;22;20241;-85
2022/02/08 13:14:57;;;;;;;1.75;0.90;;;10.60;16.50;;;;;;5064954;28;20288;-87
2022/02/08 14:01:42;;;;;;;1.83;0.90;;;10.00;18.60;;;;;;5066981;28;20251;-86
2022/02/08 14:07:18;;;;;;;2.05;0.70;;;9.80;20.00;;;;;;5045890;28;20186;-88
2022/02/08 14:09:57;;;;;;;3.70;0.95;;;9.70;20.70;;;;;;5049293;28;20267;-89
2022/02/08 15:05:24;;;;;;;2.33;0.90;;;9.90;19.90;;;;;;6177079;23;20201;-83
2022/02/08 15:06:40;;;;;;;3.50;0.95;;;9.80;20.60;;;;;;6179889;23;20209;-83
2022/02/08 15:09:10;;;;;;;1.67;1.00;;;9.80;20.90;;;;;;6167139;23;20265;-84
2022/02/08 15:12:14;;;;;;;2.42;0.90;;;9.90;21.80;;;;;;6180009;23;20163;-86
2022/02/08 15:15:07;;;;;;;3.20;0.98;;;9.90;21.80;;;;;;6177345;23;20226;-86
2022/02/08 15:17:34;;;;;;;3.40;1.30;;;9.90;22.40;;;;;;6176607;23;20237;-84
2022/02/08 15:20:04;;;;;;;3.10;0.90;;;9.80;22.60;;;;;;6176449;23;20214;-86
2022/02/08 15:22:31;;;;;;;5.03;0.93;;;9.90;22.80;;;;;;6176189;23;20175;-83
2022/02/08 15:25:00;;;;;;;2.08;0.93;;;9.80;22.70;;;;;;6176630;23;20198;-87
2022/02/08 15:30:54;;;;;;;0.90;0.90;;;9.80;22.00;;;;;;6174558;23;20181;-86
2022/02/08 15:33:59;;;;;;;1.40;1.05;;;9.70;22.60;;;;;;6169547;23;20164;-85
2022/02/08 15:36:27;;;;;;;2.55;0.88;;;9.60;22.50;;;;;;6170371;23;20222;-87
2022/02/08 15:38:58;;;;;;;1.58;0.90;;;9.60;22.10;;;;;;6167501;23;20233;-84
2022/02/08 15:41:59;;;;;;;1.45;1.00;;;9.50;23.20;;;;;;6169607;23;20166;-84
2022/02/08 15:44:27;;;;;;;0.82;0.82;;;9.50;24.60;;;;;;6169847;23;20209;-83
2022/02/08 15:46:58;;;;;;;0.90;0.90;;;9.60;23.30;;;;;;6169744;23;20175;-84
2022/02/08 15:49:54;;;;;;;0.90;0.70;;;9.60;24.10;;;;;;6150888;23;20271;-85
2022/02/08 15:52:45;;;;;;;5.38;1.10;;;9.50;24.80;;;;;;6141424;23;20168;-88
2022/02/08 15:55:28;;;;;;;5.63;0.90;;;9.40;24.00;;;;;;6141590;23;20211;-84
2022/02/08 15:58:18;;;;;;;1.95;1.05;;;9.20;24.50;;;;;;6139510;23;20160;-84
2022/02/08 16:01:02;;;;;;;0.90;0.73;;;9.20;24.50;;;;;;6138023;23;20632;-86
2022/02/08 16:09:08;;;;;;;2.70;1.15;;;9.00;24.30;;;;;;6137772;23;20203;-83
2022/02/08 16:11:56;;;;;;;1.33;1.10;;;9.00;24.30;;;;;;6140812;23;20400;-83
2022/02/08 16:14:57;;;;;;;2.63;1.17;;;9.00;24.30;;;;;;6138568;23;20268;-86
2022/02/08 16:17:33;;;;;;;1.25;1.00;;;8.90;24.20;;;;;;6142975;23;20165;-83
2022/02/08 16:20:16;;;;;;;4.78;1.33;;;8.90;24.20;;;;;;6140978;23;20207;-83
2022/02/08 16:23:16;;;;;;;3.15;0.93;;;8.90;24.20;;;;;;6142216;23;20160;-88
2022/02/08 16:25:55;;;;;;;6.22;1.23;;;8.80;24.20;;;;;;6137261;23;20196;-84
2022/02/08 16:28:39;;;;;;;1.95;1.40;;;8.80;24.20;;;;;;6139919;23;20179;-85
2022/02/08 16:31:31;;;;;;;4.13;1.20;;;8.70;24.30;;;;;;6143710;23;20263;-83
2022/02/08 16:53:25;;;;;;;4.93;1.50;;;8.50;24.00;;;;;;6078350;23;20183;-84
2022/02/08 16:56:04;;;;;;;3.08;1.40;;;8.50;24.10;;;;;;6142904;23;20175;-83
2022/02/08 16:58:41;;;;;;;2.70;1.50;;;8.40;24.90;;;;;;6140790;23;20200;-86
2022/02/08 17:01:14;;;;;;;2.28;1.58;;;8.40;25.40;;;;;;6138687;23;20251;-83
2022/02/08 17:03:45;;;;;;;2.95;1.55;;;8.50;24.90;;;;;;6137661;23;20199;-85
2022/02/08 17:06:22;;;;;;;2.92;1.60;;;8.40;24.30;;;;;;6139701;23;20168;-84
2022/02/08 17:09:03;;;;;;;4.45;1.40;;;8.40;24.90;;;;;;6139194;23;20223;-85
2022/02/08 17:11:41;;;;;;;3.38;1.70;;;8.40;23.00;;;;;;6141810;23;20220;-83
2022/02/08 17:47:38;;;;;;;3.17;1.50;;;6.80;28.90;;;;;;6139563;23;20223;-81
2022/02/08 17:50:07;;;;;;;3.83;1.80;;;6.70;29.30;;;;;;6139279;23;20238;-82
2022/02/08 17:52:35;;;;;;;5.13;1.60;;;6.70;30.10;;;;;;6139339;23;20180;-82
2022/02/08 17:55:03;;;;;;;3.83;1.60;;;6.60;29.30;;;;;;6138497;23;20216;-81
2022/02/08 17:57:32;;;;;;;1.80;1.50;;;6.50;30.00;;;;;;6139129;23;20202;-83
2022/02/08 17:59:59;;;;;;;4.87;1.80;;;6.50;30.10;;;;;;6138732;23;20269;-83
2022/02/08 18:02:27;;;;;;;3.37;1.63;;;6.50;29.90;;;;;;6142051;23;20176;-83
2022/02/08 18:04:56;;;;;;;6.57;2.13;;;6.50;30.20;;;;;;6137385;23;20207;-83
2022/02/08 18:07:24;;;;;;;2.27;1.53;;;6.40;30.70;;;;;;6140905;23;20169;-86
2022/02/08 18:09:53;;;;;;;2.77;1.60;;;6.20;30.80;;;;;;6140909;23;20214;-84
2022/02/08 18:12:22;;;;;;;5.30;1.93;;;6.10;31.60;;;;;;6140591;23;20176;-85
2022/02/08 18:14:53;;;;;;;3.43;2.20;;;6.10;31.80;;;;;;6140650;23;20231;-86
2022/02/08 18:17:26;;;;;;;7.03;2.30;;;6.10;32.40;;;;;;6141228;23;20209;-85
2022/02/08 18:20:01;;;;;;;2.87;1.80;;;6.00;33.60;;;;;;6137781;23;20235;-83
2022/02/08 18:22:48;;;;;;;4.70;2.10;;;5.90;33.10;;;;;;6132741;23;20197;-82
2022/02/08 18:28:29;;;;;;;3.07;2.03;;;5.90;34.70;;;;;;6114544;23;20481;-82
2022/02/08 18:52:12;;;;;;;2.57;1.80;;;5.80;35.10;;;;;;6133233;23;20209;-82
2022/02/08 19:07:31;;;;;;;5.50;2.03;;;5.40;38.10;;;;;;6135400;23;20247;-82
2022/02/08 19:12:56;;;;;;;5.70;2.47;;;5.30;40.00;;;;;;6134767;23;20183;-82
2022/02/08 19:15:41;;;;;;;3.83;2.40;;;5.40;39.00;;;;;;6134023;23;20229;-87
2022/02/08 19:18:46;;;;;;;2.60;2.20;;;5.30;39.90;;;;;;6134752;23;20635;-82
2022/02/08 19:23:58;;;;;;;9.03;3.00;;;5.20;43.20;;;;;;6135222;23;20250;-83
2022/02/08 19:26:35;;;;;;;9.33;4.50;;;5.20;44.50;;;;;;6136376;23;20263;-82
2022/02/08 19:29:02;;;;;;;12.53;5.40;;;5.10;44.40;;;;;;6130783;23;20227;-82
2022/02/08 19:31:29;;;;;;;8.50;5.00;;;5.00;44.40;;;;;;6136034;23;20210;-81
2022/02/08 19:33:57;;;;;;;8.57;4.60;;;5.00;44.20;;;;;;6136002;23;20256;-81
2022/02/08 19:36:25;;;;;;;7.73;4.27;;;5.00;42.90;;;;;;6134725;23;20230;-84
2022/02/08 19:38:52;;;;;;;6.50;3.50;;;4.90;44.20;;;;;;6135556;23;20270;-81
2022/02/08 19:41:22;;;;;;;6.13;3.50;;;4.90;44.20;;;;;;6135804;23;20235;-83
2022/02/08 19:43:50;;;;;;;5.70;3.63;;;4.90;43.90;;;;;;6131716;23;20223;-82
2022/02/08 19:46:19;;;;;;;6.10;3.37;;;4.80;44.10;;;;;;6129602;23;20215;-81
2022/02/08 19:48:46;;;;;;;5.57;3.47;;;4.70;44.00;;;;;;6125025;23;20283;-80
2022/02/08 19:51:13;;;;;;;5.33;3.30;;;4.60;43.90;;;;;;6127038;23;20490;-80
2022/02/08 19:53:44;;;;;;;6.70;3.30;;;4.50;43.90;;;;;;6126502;23;20579;-80